АЭРОДРОМУУД

ICAO:
ZMUB
Нэр:
УЛААНБААТАР / БУЯНТ-УХАА
Ахц:
475033N 1064603E
170901 ZMUBYNYX
(A0318/21 NOTAMN
Q) ZMUB/QFAXX/IV/NBO/A /000/999/4750N10646E005
A) ZMUB B) 2107040340 C) PERM
E) COMMERCIAL FLIGHTS WILL NOT BE OPERATED AT THE BUYANT-UKHAA INTL AP.)
- 8 hours ago -

140742 ZMUBYNYX
(A0311/21 NOTAMR A0308/21
Q) ZMUB/QFAXX/IV/NBO/A /000/999/4750N10646E005
A) ZMUB B) 2106140742 C) 2106301600
E) AD CLSD FOR INTL SKED FLT DUE TO COVID-19 INFECTION PREVENTION.)
- 3 days ago -

100650 ZMUBYNYX
(C0068/21 NOTAMR C0054/21
Q) ZMUB/QKKKK/K /K /K /000/999/4752N10350E999
A) ZMUB B) 2106100650 C) 2107010700 EST
E) CHECKLIST YEAR=2021 0037 0044 0051 0056 0064 0065 0066 0067 LATEST PUBLICATIONS: AIP AMDT: 03/21 PUBLICATION DATE 06 MAY 2021 AIRAC AIP AMDT: 03/21 WEF 17 JUN 2021 AIC (SERIES C): 01/21 PUBLICATION DATE 18 JAN 2021 AIP SUP: 08/20 PUBLICATION DATE 19 NOV 2020 AIRAC AIP SUP: 01/18 WEF 21 JUN 2018 AIP DATA SET: AIPZM-AMDT01-21 PUB 14 JAN 2021 OBST DATA SET: O-AREA1ZM200618 WEF 18 JUN 2020 O-AREA2ZMCK200618 WEF 18 JUN 2020 O-AREA2ZMUB200730 WEF 10 SEP 2020 O-AREA3ZMCK200618 WEF 18 JUN 2020 O-AREA3ZMUB200618 WEF 18 JUN 2020 TERRAIN DATA SET: T-AREA1ZM200618 WEF 18 JUN 2020 T-AREA2ZMCK200618 WEF 18 JUN 2020 T-AREA2ZMUB200618 WEF 18 JUN 2020 T-AREA3ZMCK200618 WEF 18 JUN 2020 T-AREA3ZMUB200618 WEF 18 JUN 2020 AD MAPPING DATA SET: AMDBZMCK200618 WEF 18 JUN 2020 AMDBZMUB200618 WEF 18 JUN 2020 AMDBZMDZ200618 WEF 18 JUN 2020 IFP DATA SET: IFPZM21 WEF 04 JAN 2021 AIP SUP CHECKLIST: AIP SUP: 01/20, 05/20, 06/20, 07/20, 08/20 AIRAC AIP SUP: 01/18 AIC CHECKLIST: AIC (SERIES C): 02/08, 02/20, 01/21)
- 1 week ago -

100640 ZMUBYNYX
(A0303/21 NOTAMR A0282/21
Q) ZMUB/QKKKK/K /K /K /000/999/4752N10350E999
A) ZMUB B) 2106100640 C) 2107010700 EST
E) CHECKLIST YEAR=2021 0248 0250 0251 0252 0253 0285 0289 0293 0298 0300 0302 LATEST PUBLICATIONS: AIP AMDT: 03/21 PUBLICATION DATE 06 MAY 2021 AIRAC AIP AMDT: 03/21 WEF 17 JUN 2021 AIC (SERIES A): 03/21 PUBLICATION DATE 16 APR 2021 AIP SUP: 08/20 PUBLICATION DATE 19 NOV 2020 AIRAC AIP SUP: 01/18 WEF 21 JUN 2018 AIP DATA SET: AIPZM-AMDT01-21 PUB 14 JAN 2021 OBST DATA SET: O-AREA1ZM200618 WEF 18 JUN 2020 O-AREA2ZMCK200618 WEF 18 JUN 2020 O-AREA2ZMUB200730 WEF 10 SEP 2020 O-AREA3ZMCK200618 WEF 18 JUN 2020 O-AREA3ZMUB200618 WEF 18 JUN 2020 TERRAIN DATA SET: T-AREA1ZM200618 WEF 18 JUN 2020 T-AREA2ZMCK200618 WEF 18 JUN 2020 T-AREA2ZMUB200618 WEF 18 JUN 2020 T-AREA3ZMCK200618 WEF 18 JUN 2020 T-AREA3ZMUB200618 WEF 18 JUN 2020 AD MAPPING DATA SET: AMDBZMCK200618 WEF 18 JUN 2020 AMDBZMUB200618 WEF 18 JUN 2020 AMDBZMDZ200618 WEF 18 JUN 2020 IFP DATA SET: IFPZM21 WEF 04 JAN 2021 AIP SUP CHECKLIST: AIP SUP: 01/20, 05/20, 06/20, 07/20, 08/20 AIRAC AIP SUP: 01/18 AIC CHECKLIST: AIC (SERIES A): 04/17, 03/20, 06/20, 01/21, 02/21, 03/21)
- 1 week ago -

151252 ZMUBYNYX
(A0252/21 NOTAMN
Q) ZMUB/QFATT/IV/BO /A /000/999/4750N10646E005
A) ZMUB B) 2106170000 C) 2106302359
E) TRIGGER NOTAM-PERM AIRAC AIP AMDT 03/21 WEF 17 JUN 2021 -CHANGES TO THR 15 ELEV, AIRCRAFT STANDS ELEV (EGM-08) -UPDATES OF VAR INFO.)
- 1 month ago -

METAR
No records found.
TAF
TAF ZMUB 171630Z 1718/1824 VRB02MPS 9999 SCT033 TN03/1722Z TX20/1806Z BECMG 1801/1803 33008MPS FEW030CB SCT033 BECMG 1810/1812 VRB02MPS=
- 16 minutes ago -

TAF ZMUB 171057Z 1712/1721 33005MPS 9999 FEW030CB SCT033 BECMG 1713/1715 VRB02MPS SCT033=
- 6 hours ago -

TAF ZMUB 171040Z 1712/1818 33005MPS 9999 FEW030CB SCT033 TN04/1722Z TX20/1806Z BECMG 1713/1715 VRB02MPS SCT033 BECMG 1801/1803 33008MPS FEW030CB SCT033 BECMG 1810/1812 VRB02MPS=
- 6 hours ago -

TAF COR ZMUB 170440Z 1706/1812 33008MPS 9999 BKN033 TX14/1706Z TN03/1722Z BECMG 1711/1713 VRB02MPS SCT033 BECMG 1801/1803 33008MPS FEW030CB SCT033 BECMG 1810/1812 VRB02MPS=
- 12 hours ago -

TAF ZMUB 170440Z 1706/1812 33008MPS 9999 BKN033 TX14/1706Z TN03/1722Z BECMG 1711/1713 VRB02MPS NSW SCT033 BECMG 1801/1803 33008MPS FEW030CB SCT033 BECMG 1810/1812 VRB02MPS=
- 12 hours ago -

TAF ZMUB 162240Z 1700/1806 32007MPS 9999 RA FEW023 BKN030 TX14/1706Z TN03/1722Z BECMG 1701/1703 32009G14MPS BECMG 1711/1713 VRB02MPS NSW SCT033 BECMG 1801/1803 32008MPS=
- 18 hours ago -

TAF COR ZMUB 161637Z 1618/1724 VRB02MPS 9999 FEW030CB SCT033 TN06/1622Z TX14/1706Z TEMPO 1618/1703 VRB08G13MPS SHRA SCT027CB BKN030 BECMG 1621/1623 32007MPS BECMG 1701/1703 32009G14MPS RA FEW023 BKN030 BECMG 1711/1713 VRB02MPS=
- 1 day ago -

TAF ZMUB 161637Z 1618/1724 VRB02MPS 9999 FEW030CB SCT033 TN06/1622Z TX14/1706Z TEMPO 1616/1703 VRB08G13MPS SHRA SCT027CB BKN030 BECMG 1621/1623 32007MPS BECMG 1701/1703 32009G14MPS RA FEW023 BKN030 BECMG 1711/1713 VRB02MPS=
- 1 day ago -

TAF ZMUB 161040Z 1612/1718 VRB02MPS 9999 FEW030CB SCT033 TN06/1622Z TX14/1706Z TEMPO 1616/1703 VRB08G13MPS SHRA SCT027CB BKN030 BECMG 1621/1623 32007MPS BECMG 1701/1703 32009G14MPS RA FEW023 BKN030 BECMG 1711/1713 VRB02MPS=
- 1 day ago -